createdAt,value
2018-08-31T00:01:26.138Z,14.44
2018-08-31T00:04:48.406Z,14.49
2018-08-31T00:08:10.774Z,14.39
2018-08-31T00:12:36.307Z,14.30
2018-08-31T00:15:42.027Z,14.30
2018-08-31T00:18:47.406Z,14.22
2018-08-31T00:21:52.870Z,14.16
2018-08-31T00:26:30.603Z,14.08
2018-08-31T00:29:53.782Z,14.19
2018-08-31T00:33:16.174Z,14.15
2018-08-31T00:36:38.287Z,14.10
2018-08-31T00:42:37.927Z,14.11
2018-08-31T00:45:43.421Z,14.05
2018-08-31T00:48:48.745Z,13.99
2018-08-31T00:51:54.237Z,14.09
2018-08-31T00:54:59.725Z,14.14
2018-08-31T00:58:05.385Z,14.13
2018-08-31T01:01:10.774Z,14.14
2018-08-31T01:04:16.113Z,13.99
2018-08-31T01:07:21.475Z,14.04
2018-08-31T01:10:26.895Z,13.98
2018-08-31T01:13:32.257Z,14.04
2018-08-31T01:16:37.634Z,14.05
2018-08-31T01:19:43.022Z,13.89
2018-08-31T01:22:48.502Z,13.83
2018-08-31T01:25:53.950Z,13.88
2018-08-31T01:28:59.678Z,13.78
2018-08-31T01:32:05.439Z,13.84
2018-08-31T01:35:10.850Z,13.80
2018-08-31T01:38:16.221Z,13.76
2018-08-31T01:41:21.700Z,13.82
2018-08-31T01:44:27.066Z,13.86
2018-08-31T01:47:32.718Z,13.86
2018-08-31T01:50:42.777Z,13.55
2018-08-31T01:53:48.690Z,13.63
2018-08-31T01:56:54.143Z,13.53
2018-08-31T01:59:59.630Z,13.55
2018-08-31T02:03:05.014Z,13.68
2018-08-31T02:06:10.716Z,13.59
2018-08-31T02:09:18.946Z,13.62
2018-08-31T02:12:24.335Z,13.58
2018-08-31T02:15:29.702Z,13.66
2018-08-31T02:18:35.122Z,13.58
2018-08-31T02:21:40.577Z,13.52
2018-08-31T02:24:45.981Z,13.59
2018-08-31T02:27:51.342Z,13.54
2018-08-31T02:30:56.774Z,13.59
2018-08-31T02:34:02.144Z,13.49
2018-08-31T02:37:07.495Z,13.55
2018-08-31T02:40:12.919Z,13.59
2018-08-31T02:43:18.294Z,13.55
2018-08-31T02:46:23.894Z,13.41
2018-08-31T02:49:29.357Z,13.49
2018-08-31T02:52:34.726Z,13.40
